• Join FlightAware (Why Join?)
  • Login
  • US Flag 
06:47AM EDT


 

Airport Tracker/Info


-or-


 

Live Flight TrackerFlight Track Log ✈ RPA3228 ✈ 09-Sep-2013 ✈ KBNA - KDCA

Flight Track Log - Related Links

Times and Time Zones

All times are in EDT time to prevent confusion due to time zone crossing. See the RPA3228 flight status page for this flight to view local times or setup timezone preferences in your user account.

Time Position Orientation Groundspeed Altitude Reporting Facility
EDT Latitude Longitude Course Direction KTS MPH feet Rate Location/Type
07:41AM 36.1333 -86.6500 56° Northeast 161 185 1,300  Level Nashville TRACON
07:42AM 36.1833 -86.5667 53° Northeast 249 287 4,800 2,760 Climbing Nashville TRACON
07:43AM 36.2504 -86.2998 64° Northeast  Level Estimated
07:43AM 36.1833 -86.5167 90° East 255 293 7,100  Level Nashville TRACON
07:44AM 36.2921 -86.1734 68° East  Level Estimated
07:44AM 36.1914 -86.4069 85° East 308 354 10,700  Level Memphis Center
07:45AM 36.3336 -86.0469 50° Northeast  Level Estimated
07:45AM 36.1944 -86.3014 88° East 314 361 13,300  Level Memphis Center
07:46AM 36.3751 -85.9203 56° Northeast  Level Estimated
07:46AM 36.1989 -86.1828 87° East 326 375 15,900  Level Memphis Center
07:47AM 36.2092 -86.0614 84° East 352 405 18,300 2,400 Climbing Memphis Center
07:49AM 36.3189 -85.8033 62° Northeast 386 444 23,700 2,220 Climbing Indianapolis Center
07:50AM 36.3750 -85.6864 59° Northeast 391 450 25,600 1,560 Climbing Indianapolis Center
07:51AM 36.4333 -85.5653 59° Northeast 405 466 27,000 660 Climbing Indianapolis Center
07:53AM 36.5031 -85.4181 59° Northeast 409 471 27,000 360 Level Indianapolis Center
07:54AM 36.5378 -85.2842 72° East 417 480 27,800 1,140 Climbing Indianapolis Center
07:55AM 36.5503 -85.1392 84° East 422 486 29,400 1,740 Climbing Indianapolis Center
07:56AM 36.5833 -85.0019 73° East 415 478 31,400 1,740 Climbing Indianapolis Center
07:57AM 36.6272 -84.8706 67° East 410 472 33,000 780 Climbing Indianapolis Center
07:58AM 36.6692 -84.7408 68° East 403 464 33,000  Level Indianapolis Center
07:59AM 36.7094 -84.6142 68° East 394 453 33,000  Level Indianapolis Center
08:00AM 36.7547 -84.4825 67° East 387 445 33,000  Level Indianapolis Center
08:01AM 36.7981 -84.3594 66° East 386 444 33,000  Level Indianapolis Center
08:02AM 36.8944 -84.3108 22° Northeast 368 423 33,000  Level Indianapolis Center
08:03AM 36.9989 -84.2972 North 374 430 33,000  Level Indianapolis Center
08:04AM 37.1119 -84.2478 19° North 378 435 33,000  Level Indianapolis Center
08:05AM 37.1586 -84.1231 65° Northeast 405 466 33,000  Level Indianapolis Center
08:06AM 37.1889 -83.9856 75° East 408 470 33,000  Level Indianapolis Center
08:07AM 37.2028 -83.8400 83° East 419 482 33,000  Level Indianapolis Center
08:08AM 37.2139 -83.6950 84° East 418 481 33,000  Level Indianapolis Center
08:09AM 37.2272 -83.5506 83° East 417 480 33,000  Level Indianapolis Center
08:10AM 37.2406 -83.4083 83° East 412 474 33,000  Level Indianapolis Center
08:11AM 37.2539 -83.2644 83° East 412 474 33,000  Level Indianapolis Center
08:12AM 37.2689 -83.0969 84° East 410 472 33,000  Level Indianapolis Center
08:13AM 37.2847 -82.9533 82° East 411 473 33,000  Level Indianapolis Center
08:14AM 37.3211 -82.8169 71° East 411 473 33,000  Level Indianapolis Center
08:15AM 37.3583 -82.6825 71° East 407 468 33,000  Level Indianapolis Center
08:16AM 37.3953 -82.5486 71° East 404 465 33,000  Level Indianapolis Center
08:17AM 37.4339 -82.4153 70° East 404 465 33,000  Level Indianapolis Center
08:18AM 37.4694 -82.2806 72° East 405 466 33,000  Level Indianapolis Center
08:19AM 37.5072 -82.1489 70° East 399 459 33,000  Level Indianapolis Center
08:20AM 37.5497 -81.9925 71° East 403 464 33,000  Level Indianapolis Center
08:21AM 37.5861 -81.8583 71° East 404 465 33,000  Level Indianapolis Center
08:22AM 37.6222 -81.7242 71° East 403 464 33,000  Level Indianapolis Center
08:23AM 37.6569 -81.5903 72° East 402 463 33,000  Level Indianapolis Center
08:24AM 37.7361 -81.5022 41° Northeast 391 450 33,000  Level Indianapolis Center
08:25AM 37.8161 -81.3989 46° Northeast 390 449 33,000  Level Indianapolis Center
08:26AM 37.8561 -81.2594 70° East 402 463 33,000  Level Indianapolis Center
08:27AM 37.8939 -81.1258 70° East 403 464 33,000  Level Indianapolis Center
08:28AM 37.9303 -80.9922 71° East 404 465 33,000  Level Indianapolis Center
08:30AM 37.9675 -80.8581 71° East 403 464 33,000  Level Indianapolis Center
08:31AM 38.0036 -80.7239 71° East 404 465 33,000  Level Indianapolis Center
08:32AM 38.0414 -80.5892 70° East 405 466 33,000  Level Indianapolis Center
08:33AM 38.0775 -80.4547 71° East 404 465 33,000  Level Indianapolis Center
08:34AM 38.1214 -80.2933 71° East 405 466 33,000  Level Indianapolis Center
08:35AM 38.1575 -80.1583 71° East 404 465 33,000  Level Indianapolis Center
08:36AM 38.1911 -80.0344 71° East 408 470 33,000  Level Indianapolis Center
08:37AM 38.2333 -79.8764 71° East 405 466 33,000  Level Indianapolis Center
08:38AM 38.2697 -79.7431 71° East 409 471 33,000  Level Indianapolis Center
08:39AM 38.3117 -79.6147 67° East 404 465 33,000  Level Indianapolis Center
08:40AM 38.3556 -79.4872 66° East 403 464 33,000 -900 Level Indianapolis Center
08:41AM 38.4131 -79.3333 64° Northeast 404 465 31,200 -1,860 Descending Washington Center
08:42AM 38.4422 -79.2047 74° East 404 465 29,100 -2,160 Descending Washington Center
08:43AM 38.4672 -79.0603 77° East 409 471 27,000 -1,140 Descending Washington Center
08:44AM 38.4922 -78.9156 78° East 415 478 26,900 -1,200 Descending Washington Center
08:45AM 38.5153 -78.7519 80° East 415 478 24,600 -2,220 Descending Washington Center
08:46AM 38.5378 -78.6069 79° East 415 478 22,600 -1,620 Descending Washington Center
08:47AM 38.5622 -78.4644 78° East 415 478 21,500 -1,200 Descending Washington Center
08:48AM 38.5842 -78.3247 79° East 403 464 20,200 -1,620 Descending Washington Center
08:49AM 38.6164 -78.1903 73° East 398 458 18,300 -1,800 Descending Washington Center
08:50AM 38.6567 -78.0667 67° East 385 443 16,700 -1,620 Descending Washington Center
08:51AM 38.7147 -77.9783 50° Northeast 337 388 15,100 -1,500 Descending Washington Center
08:52AM 38.7703 -77.9108 43° Northeast 303 349 13,700 -1,500 Descending Washington Center
08:53AM 38.7700 -77.8042 90° East 281 323 12,200 -900 Descending Washington Center
08:54AM 38.8156 -77.7097 58° Northeast 292 336 11,900 -1,080 Descending Washington Center
08:55AM 38.8500 -77.6167 65° Northeast 310 357 10,200 -1,620 Descending Potomac TRACON
08:56AM 38.8833 -77.5167 67° East 305 351 8,900 -1,380 Descending Potomac TRACON
08:58AM 38.8667 -77.3333 97° East 298 343 6,300 -1,020 Descending Potomac TRACON
08:59AM 38.8167 -77.2500 128° Southeast 273 314 6,000 -180 Descending Potomac TRACON
09:00AM 38.7833 -77.1667 117° Southeast 248 285 6,000 -540 Level Potomac TRACON
09:01AM 38.7500 -77.1167 131° Southeast 243 280 5,100 -1,140 Descending Potomac TRACON
09:02AM 38.6833 -77.1167 180° South 211 243 3,900 -600 Descending Potomac TRACON
09:02AM 38.6500 -77.1000 159° South 178 205 4,000  Climbing Potomac TRACON
09:03AM 38.6000 -77.1000 180° South 180 207 4,000 -60 Level Potomac TRACON
09:04AM 38.6000 -77.0500 90° East 194 223 3,900 -480 Descending Potomac TRACON
09:05AM 38.6500 -77.0333 15° North 181 208 3,100 -540 Descending Potomac TRACON
09:06AM 38.7000 -77.0167 15° North 180 207 2,900 -540 Descending Potomac TRACON
09:07AM 38.7500 -77.0333 345° North 187 215 2,100 -840 Descending Potomac TRACON
09:08AM 38.7833 -77.0333 360° North 171 197 1,300 -720 Descending Potomac TRACON
09:09AM 38.8333 -77.0167 15° North 122 140 700 -600 Descending Potomac TRACON